• Join FlightAware (Why Join?)
  • Login
  • US Flag 
03:58PM EDT


 

Airport Tracker/Info


-or-


 

Live Flight TrackerFlight Track Log ✈ OPT452 ✈ 09-Apr-2013 ✈ KPDK - KSRQ

Flight Track Log - Related Links

Times and Time Zones

All times are in EDT time to prevent confusion due to time zone crossing. See the OPT452 flight status page for this flight to view local times or setup timezone preferences in your user account.

Time Position Orientation Groundspeed Altitude Reporting Facility
EDT Latitude Longitude Course Direction KTS MPH feet Rate Location/Type
01:40PM 33.8000 -84.2167 121° Southeast 225 259 2,900  Level Atlanta TRACON
01:41PM 33.7667 -84.1667 129° Southeast 198 228 2,900  Level Atlanta TRACON
01:42PM 33.7333 -84.1167 129° Southeast 201 231 3,000 60 Climbing Atlanta TRACON
01:43PM 33.6833 -84.1167 180° South 195 224 3,100 900 Climbing Atlanta TRACON
01:44PM 33.6500 -84.1500 220° Southwest 193 222 4,900 1,800 Climbing Atlanta TRACON
01:45PM 33.3179 -84.1416 192° South  Level Estimated
01:45PM 33.6000 -84.1667 196° South 197 227 6,700  Level Atlanta TRACON
01:46PM 33.5500 -84.2000 209° Southwest 193 222 8,400 1,500 Climbing Atlanta TRACON
01:47PM 33.5000 -84.2333 209° Southwest 189 217 9,700 900 Climbing Atlanta TRACON
01:48PM 33.4500 -84.2833 220° Southwest 237 273 10,200 900 Climbing Atlanta TRACON
01:51PM 33.3242 -84.3594 207° Southwest 256 295 12,700 1,140 Climbing Atlanta Center
01:52PM 33.2533 -84.3617 182° South 255 293 13,900 1,020 Climbing Atlanta Center
01:53PM 33.1906 -84.3639 182° South 255 293 14,800 1,020 Climbing Atlanta Center
01:54PM 33.1197 -84.3636 180° South 255 293 16,000 1,260 Climbing Atlanta Center
01:55PM 33.0403 -84.3658 181° South 267 307 17,400 1,260 Climbing Atlanta Center
01:56PM 32.9611 -84.3631 178° South 286 329 18,600 1,380 Climbing Atlanta Center
01:57PM 32.8753 -84.3653 181° South 298 343 20,200 1,560 Climbing Atlanta Center
01:58PM 32.7794 -84.3625 179° South 309 356 21,800 1,500 Climbing Atlanta Center
01:59PM 32.6917 -84.3647 181° South 309 356 23,300 1,500 Climbing Atlanta Center
02:00PM 32.6019 -84.3619 179° South 314 361 24,800 1,500 Climbing Atlanta Center
02:01PM 32.5122 -84.3639 181° South 320 368 26,400 1,500 Climbing Atlanta Center
02:02PM 32.4183 -84.3661 181° South 330 380 27,900 1,500 Climbing Atlanta Center
02:03PM 32.2519 -84.3664 180° South 343 395 30,600 1,500 Climbing Jacksonville Center
02:04PM 32.1581 -84.3650 179° South 343 395 32,100 1,200 Climbing Jacksonville Center
02:05PM 32.0639 -84.3683 182° South 343 395 33,000 420 Climbing Jacksonville Center
02:06PM 31.9575 -84.3667 179° South 355 409 33,000  Level Jacksonville Center
02:07PM 31.8469 -84.3672 180° South 382 440 33,000  Level Jacksonville Center
02:08PM 31.7300 -84.3681 180° South 406 467 33,000  Level Jacksonville Center
02:09PM 31.6108 -84.3708 181° South 421 484 33,000  Level Jacksonville Center
02:10PM 31.4919 -84.3714 180° South 426 490 33,000  Level Jacksonville Center
02:11PM 31.3728 -84.3719 180° South 426 490 33,000  Level Jacksonville Center
02:12PM 31.2581 -84.3703 179° South 421 484 33,000  Level Jacksonville Center
02:13PM 31.1453 -84.3708 180° South 416 479 33,000  Level Jacksonville Center
02:14PM 31.0306 -84.3714 180° South 416 479 33,000  Level Jacksonville Center
02:15PM 30.9197 -84.3747 181° South 416 479 33,000  Level Jacksonville Center
02:16PM 30.8028 -84.3728 179° South 416 479 33,000  Level Jacksonville Center
02:17PM 30.6942 -84.3758 181° South 416 479 33,000  Level Jacksonville Center
02:18PM 30.5817 -84.3717 178° South 410 472 33,000  Level Jacksonville Center
02:19PM 30.4756 -84.3194 157° South 392 451 33,000  Level Jacksonville Center
02:20PM 30.3761 -84.2553 151° Southeast 398 458 33,000  Level Jacksonville Center
02:21PM 30.2744 -84.1889 151° Southeast 408 470 33,000  Level Jacksonville Center
02:22PM 30.1853 -84.1325 151° Southeast 408 470 33,000  Level Jacksonville Center
02:23PM 30.0836 -84.0689 152° Southeast 408 470 33,000  Level Jacksonville Center
02:24PM 29.9839 -84.0028 150° Southeast 414 476 33,000  Level Jacksonville Center
02:25PM 29.8844 -83.9369 150° Southeast 414 476 33,000  Level Jacksonville Center
02:26PM 29.7806 -83.8714 151° Southeast 414 476 33,000  Level Jacksonville Center
02:27PM 29.6808 -83.8058 150° Southeast 414 476 33,000  Level Jacksonville Center
02:28PM 29.5789 -83.7403 151° Southeast 414 476 33,000  Level Jacksonville Center
02:29PM 29.4769 -83.6775 152° Southeast 414 476 33,000  Level Jacksonville Center
02:30PM 29.3750 -83.6122 151° Southeast 414 476 33,000  Level Jacksonville Center
02:31PM 29.2731 -83.5544 154° Southeast 414 476 33,000 -420 Level Jacksonville Center
02:32PM 29.1711 -83.4989 155° Southeast 409 471 32,200 -1,500 Descending Jacksonville Center
02:33PM 29.0628 -83.4389 154° Southeast 416 479 30,000 -2,280 Descending Jacksonville Center
02:34PM 28.9525 -83.3789 155° Southeast 430 495 27,700 -1,920 Descending Jacksonville Center
02:35PM 28.8442 -83.3286 158° South 430 495 26,200 -1,800 Descending Jacksonville Center
02:37PM 28.6500 -83.2500 160° South 398 458 22,700 -2,160 Descending Tampa TRACON
02:38PM 28.5333 -83.2167 166° South 396 456 20,300 -2,400 Descending Tampa TRACON
02:39PM 28.4333 -83.1667 156° South 394 453 17,900 -2,400 Descending Tampa TRACON
02:40PM 28.3333 -83.1333 164° South 390 449 15,500 -2,580 Descending Tampa TRACON
02:41PM 28.2333 -83.0833 156° South 354 407 12,800 -2,280 Descending Tampa TRACON
02:42PM 28.1500 -83.0500 161° South 323 372 11,000 -1,200 Descending Tampa TRACON
02:43PM 28.0833 -83.0167 156° South 303 349 10,600 -900 Descending Tampa TRACON
02:44PM 28.0167 -82.9667 146° Southeast 284 327 9,300 -1,200 Descending Tampa TRACON
02:45PM 27.9500 -82.9333 156° South 272 313 8,200 -1,260 Descending Tampa TRACON
02:46PM 27.8833 -82.9000 156° South 263 303 7,100 -1,140 Descending Tampa TRACON
02:47PM 27.8167 -82.8833 168° South 237 273 6,100 -600 Descending Tampa TRACON
02:48PM 27.7667 -82.8500 149° Southeast 236 272 6,000 -60 Descending Tampa TRACON
02:49PM 27.6833 -82.8167 160° South 249 287 6,000 -60 Level Tampa TRACON
02:50PM 27.6167 -82.7833 156° South 249 287 5,900 -780 Descending Tampa TRACON
02:51PM 27.5667 -82.7500 149° Southeast 233 268 4,500 -1,260 Descending Tampa TRACON
02:52PM 27.5333 -82.7167 138° Southeast 203 234 3,600 -1,080 Descending Tampa TRACON
02:53PM 27.5000 -82.6667 127° Southeast 203 234 2,500 -1,020 Descending Tampa TRACON
02:54PM 27.4667 -82.6333 138° Southeast 167 192 1,600 -840 Descending Tampa TRACON
02:55PM 27.4333 -82.6000 138° Southeast 139 160 900 -720 Descending Tampa TRACON
02:56PM 27.4000 -82.5667 138° Southeast 119 137 200 -720 Descending Tampa TRACON
02:58PM 27.3954 -82.5544 138° Southeast  Level Estimated
03:05PM 27.3954 -82.5544 138° Southeast  Level Estimated